Time;durP1;ratioP1;P1;durP2;ratioP2;P2;SDS_P1;SDS_P2;PMS_P1;PMS_P2;Temp;Humidity;BMP_temperature;BMP_pressure;BME280_temperature;BME280_humidity;BME280_pressure;Samples;Min_cycle;Max_cycle;Signal;HPM_P1;HPM_P2
2024/03/15 00:01:37;;;;;;;;;;;;;;;17.75;47.64;100985.66;5090466;28;1089;-45
2024/03/15 00:04:03;;;;;;;;;;;;;;;17.39;48.63;100984.81;5090705;28;1230;-49
2024/03/15 00:06:29;;;;;;;;;;;;;;;16.54;48.93;100983.22;5097431;28;1978;-49
2024/03/15 00:08:56;;;;;;;;;;;;;;;16.27;48.26;100983.34;5083398;28;1122;-50
2024/03/15 00:11:22;;;;;;;;;;;;;;;16.05;47.58;100979.69;5085248;28;903;-47
2024/03/15 00:13:48;;;;;;;;;;;;;;;17.12;48.66;100987.81;5084032;28;1126;-47
2024/03/15 00:16:14;;;;;;;;;;;;;;;16.28;49.21;100983.09;5064108;28;1052;-51
2024/03/15 00:18:39;;;;;;;;;;;;;;;15.97;48.31;100971.94;5077112;28;1087;-45
2024/03/15 00:21:05;;;;;;;;;;;;;;;16.19;48.46;100974.53;5090267;28;1154;-49
2024/03/15 00:23:31;;;;;;;;;;;;;;;17.07;48.68;100978.47;5094674;28;858;-47
2024/03/15 00:25:58;;;;;;;;;;;;;;;16.31;48.85;100971.56;5083395;28;1901;-46
2024/03/15 00:28:23;;;;;;;;;;;;;;;16.01;48.34;100970.31;5083720;28;1162;-48
2024/03/15 00:30:52;;;;;;;;;;;;;;;16.44;48.87;100975.78;5097000;28;1066;-44
2024/03/15 00:33:17;;;;;;;;;;;;;;;16.13;49.16;100974.78;5095813;28;1018;-49
2024/03/15 00:35:43;;;;;;;;;;;;;;;15.96;48.28;100972.22;5089394;28;960;-47
2024/03/15 00:38:08;;;;;;;;;;;;;;;15.84;47.75;100980.66;5089874;28;1019;-49
2024/03/15 00:40:34;;;;;;;;;;;;;;;16.98;48.39;100974.59;5083538;28;1288;-50
2024/03/15 00:43:00;;;;;;;;;;;;;;;16.13;48.71;100972.03;5096085;28;1078;-47
2024/03/15 00:45:26;;;;;;;;;;;;;;;15.88;48.04;100979.84;5076882;28;1917;-44
2024/03/15 00:47:55;;;;;;;;;;;;;;;15.72;47.35;100973.41;5096789;28;1046;-48
2024/03/15 00:50:20;;;;;;;;;;;;;;;16.84;48.20;100977.00;5096390;28;1402;-45
2024/03/15 00:52:46;;;;;;;;;;;;;;;16.77;48.88;100980.03;5095619;28;1098;-46
2024/03/15 00:55:12;;;;;;;;;;;;;;;16.01;49.59;100973.06;5084092;28;1055;-48
2024/03/15 00:57:38;;;;;;;;;;;;;;;17.70;47.59;100977.41;5077340;28;1138;-50
2024/03/15 01:00:04;;;;;;;;;;;;;;;16.56;49.42;100970.03;5084420;28;1125;-49
2024/03/15 01:02:30;;;;;;;;;;;;;;;16.18;48.39;100972.88;5094944;28;1042;-50
2024/03/15 01:04:56;;;;;;;;;;;;;;;16.04;47.59;100975.28;5084034;28;1291;-50
2024/03/15 01:07:21;;;;;;;;;;;;;;;16.53;48.64;100971.41;5094503;28;1905;-47
2024/03/15 01:09:47;;;;;;;;;;;;;;;16.52;48.96;100977.16;5077610;28;1134;-50
2024/03/15 01:12:14;;;;;;;;;;;;;;;16.06;48.55;100980.50;5095855;28;1122;-48
2024/03/15 01:14:40;;;;;;;;;;;;;;;15.89;47.86;100970.53;5087863;28;1138;-47
2024/03/15 01:17:07;;;;;;;;;;;;;;;15.74;47.21;100978.63;5077382;28;1126;-50
2024/03/15 01:19:33;;;;;;;;;;;;;;;17.17;48.26;100977.66;5078342;28;1217;-46
2024/03/15 01:22:00;;;;;;;;;;;;;;;16.22;48.93;100970.44;5088088;28;1059;-48
2024/03/15 01:24:28;;;;;;;;;;;;;;;15.89;48.38;100970.53;5084434;28;1120;-48
2024/03/15 01:26:53;;;;;;;;;;;;;;;16.84;48.43;100973.44;5095446;28;1984;-49
2024/03/15 01:29:19;;;;;;;;;;;;;;;16.62;48.87;100982.72;5094587;28;915;-48
2024/03/15 01:31:45;;;;;;;;;;;;;;;16.08;48.62;100973.66;5093575;28;1156;-46
2024/03/15 01:34:11;;;;;;;;;;;;;;;15.89;48.11;100976.03;5081050;28;1190;-45
2024/03/15 01:36:36;;;;;;;;;;;;;;;17.05;48.38;100983.38;5091439;28;1109;-50
2024/03/15 01:39:02;;;;;;;;;;;;;;;16.60;48.78;100979.41;5096345;28;1054;-48
2024/03/15 01:41:28;;;;;;;;;;;;;;;16.01;48.64;100973.06;5095321;28;1070;-51
2024/03/15 01:43:54;;;;;;;;;;;;;;;17.07;48.27;100975.72;5088446;28;1173;-45
2024/03/15 01:46:21;;;;;;;;;;;;;;;16.43;49.11;100972.19;5084602;28;1901;-47
2024/03/15 01:48:47;;;;;;;;;;;;;;;16.18;48.25;100970.16;5054651;28;1116;-50
2024/03/15 01:51:12;;;;;;;;;;;;;;;15.90;47.34;100974.09;5094376;28;1110;-47
2024/03/15 01:53:38;;;;;;;;;;;;;;;16.97;48.42;100972.97;5075691;28;1230;-49
2024/03/15 01:56:04;;;;;;;;;;;;;;;16.15;49.00;100973.44;5090233;28;1159;-47
2024/03/15 01:58:30;;;;;;;;;;;;;;;15.87;48.15;100977.38;5091868;28;1132;-46
2024/03/15 02:00:56;;;;;;;;;;;;;;;15.76;47.47;100967.41;5077587;28;1113;-48
2024/03/15 02:03:23;;;;;;;;;;;;;;;16.04;47.77;100972.53;5087195;28;1058;-49
2024/03/15 02:05:49;;;;;;;;;;;;;;;17.28;47.63;100970.25;5090734;28;1968;-48
2024/03/15 02:08:19;;;;;;;;;;;;;;;16.20;48.99;100972.63;5095979;28;1142;-46
2024/03/15 02:10:45;;;;;;;;;;;;;;;15.85;48.50;100976.78;5082120;28;1050;-49
2024/03/15 02:13:10;;;;;;;;;;;;;;;15.72;47.54;100973.41;5084826;28;1106;-45
2024/03/15 02:15:36;;;;;;;;;;;;;;;16.55;48.48;100977.47;5081637;28;1079;-47
2024/03/15 02:18:02;;;;;;;;;;;;;;;16.22;48.99;100976.75;5086643;28;1066;-50
2024/03/15 02:20:27;;;;;;;;;;;;;;;15.81;48.33;100967.44;5089433;28;1035;-48
2024/03/15 02:22:53;;;;;;;;;;;;;;;17.24;47.72;100977.41;5078198;28;1150;-45
2024/03/15 02:25:19;;;;;;;;;;;;;;;16.37;48.74;100975.19;5091918;28;1909;-47
2024/03/15 02:27:44;;;;;;;;;;;;;;;15.89;48.50;100984.25;5089912;28;1233;-50
2024/03/15 02:30:11;;;;;;;;;;;;;;;16.25;48.54;100981.69;5095239;28;1158;-48
2024/03/15 02:32:38;;;;;;;;;;;;;;;17.59;47.18;100995.81;5098737;28;1070;-48
2024/03/15 02:35:06;;;;;;;;;;;;;;;16.38;49.13;100999.63;5094291;28;1070;-48
2024/03/15 02:37:33;;;;;;;;;;;;;;;16.01;48.71;100988.72;5099393;28;1058;-50
2024/03/15 02:39:58;;;;;;;;;;;;;;;16.43;48.52;100996.88;5098547;28;1132;-51
2024/03/15 02:42:24;;;;;;;;;;;;;;;17.07;48.33;100992.22;5089443;28;1178;-50
2024/03/15 02:44:49;;;;;;;;;;;;;;;16.25;48.84;100994.59;5079830;28;1186;-47
2024/03/15 02:47:15;;;;;;;;;;;;;;;15.88;48.30;100988.06;5085423;28;1905;-47
2024/03/15 02:49:40;;;;;;;;;;;;;;;17.24;48.17;100989.22;5098144;28;1058;-46
2024/03/15 02:52:06;;;;;;;;;;;;;;;16.34;49.05;100986.69;5099212;28;1082;-48
2024/03/15 02:54:32;;;;;;;;;;;;;;;16.03;48.45;100979.13;5083170;28;1070;-47
2024/03/15 02:56:58;;;;;;;;;;;;;;;16.86;48.87;100982.25;5087199;28;1024;-48
2024/03/15 02:59:23;;;;;;;;;;;;;;;16.39;49.08;100984.78;5098206;28;1081;-49
2024/03/15 03:01:49;;;;;;;;;;;;;;;15.99;48.61;100975.25;5098452;28;1019;-48
2024/03/15 03:04:15;;;;;;;;;;;;;;;15.86;47.80;100972.97;5098346;28;1066;-47
2024/03/15 03:06:42;;;;;;;;;;;;;;;15.74;47.10;100978.63;5098527;28;1909;-46
2024/03/15 03:09:09;;;;;;;;;;;;;;;16.41;47.78;100981.78;5084323;28;1058;-49
2024/03/15 03:11:36;;;;;;;;;;;;;;;16.65;48.76;100982.16;5098142;28;911;-49
2024/03/15 03:14:04;;;;;;;;;;;;;;;15.94;48.84;100979.91;5096294;28;1078;-44
2024/03/15 03:16:33;;;;;;;;;;;;;;;15.81;47.88;100979.25;5087270;28;1094;-50
2024/03/15 03:19:00;;;;;;;;;;;;;;;17.19;47.79;100985.63;5084367;28;1070;-49
2024/03/15 03:21:26;;;;;;;;;;;;;;;16.54;48.71;100991.47;5088820;28;1062;-50
2024/03/15 03:23:53;;;;;;;;;;;;;;;16.00;48.81;100987.88;5087939;28;1153;-49
2024/03/15 03:26:19;;;;;;;;;;;;;;;15.81;47.99;100981.16;5097954;28;1984;-50
2024/03/15 03:28:45;;;;;;;;;;;;;;;15.73;47.23;100993.41;5094651;28;1136;-46
2024/03/15 03:31:10;;;;;;;;;;;;;;;16.24;48.20;100991.03;5087133;28;1059;-49
2024/03/15 03:33:36;;;;;;;;;;;;;;;17.04;48.07;100995.50;5085133;28;1141;-47
2024/03/15 03:36:01;;;;;;;;;;;;;;;16.11;49.29;100998.91;5096242;28;856;-47
2024/03/15 03:38:27;;;;;;;;;;;;;;;15.84;48.33;100999.84;5097503;28;1014;-46
2024/03/15 03:40:52;;;;;;;;;;;;;;;17.03;48.27;101006.75;5079642;28;1051;-44
2024/03/15 03:43:18;;;;;;;;;;;;;;;16.23;49.26;101002.28;5079812;28;1055;-47
2024/03/15 03:45:46;;;;;;;;;;;;;;;16.00;48.36;101003.50;5097436;28;1972;-48
2024/03/15 03:48:13;;;;;;;;;;;;;;;15.78;47.81;101014.56;5089291;28;1063;-49
2024/03/15 03:50:39;;;;;;;;;;;;;;;16.79;48.38;101009.97;5097785;28;1524;-49
2024/03/15 03:53:04;;;;;;;;;;;;;;;16.16;49.00;101018.97;5097403;28;1144;-45
2024/03/15 03:55:31;;;;;;;;;;;;;;;15.79;48.68;101019.81;5097996;28;1070;-47
2024/03/15 03:57:57;;;;;;;;;;;;;;;17.21;47.62;101024.66;5097463;28;1153;-45
2024/03/15 04:00:23;;;;;;;;;;;;;;;16.22;48.86;101017.91;5094215;28;879;-45
2024/03/15 04:02:50;;;;;;;;;;;;;;;16.16;48.88;101024.47;5081520;28;1073;-46
2024/03/15 04:05:16;;;;;;;;;;;;;;;17.10;47.83;101021.06;5086609;28;1015;-46
2024/03/15 04:07:42;;;;;;;;;;;;;;;16.25;48.50;101017.38;5097653;28;1910;-49
2024/03/15 04:10:08;;;;;;;;;;;;;;;16.00;47.81;101017.22;5096994;28;1034;-46
2024/03/15 04:12:35;;;;;;;;;;;;;;;16.72;48.38;101020.38;5086388;28;1114;-47
2024/03/15 04:15:05;;;;;;;;;;;;;;;17.00;48.24;101021.03;5097402;28;1070;-44
2024/03/15 04:17:30;;;;;;;;;;;;;;;16.28;48.37;101018.75;5050273;28;1359;-49
2024/03/15 04:19:57;;;;;;;;;;;;;;;17.06;48.40;101026.25;5083506;28;1118;-48
2024/03/15 04:22:25;;;;;;;;;;;;;;;16.70;48.76;101028.03;5070744;28;1059;-47
2024/03/15 04:24:51;;;;;;;;;;;;;;;16.28;48.27;101024.25;5095956;28;863;-51
2024/03/15 04:27:17;;;;;;;;;;;;;;;16.01;48.01;101027.94;5096689;28;1975;-48
2024/03/15 04:29:43;;;;;;;;;;;;;;;15.85;47.14;101031.63;5083230;28;1057;-52
2024/03/15 04:32:09;;;;;;;;;;;;;;;15.69;46.97;101030.66;5096577;28;1133;-49
2024/03/15 04:34:37;;;;;;;;;;;;;;;16.86;48.29;101038.00;5083243;28;1222;-51
2024/03/15 04:37:04;;;;;;;;;;;;;;;16.63;48.89;101047.50;5088544;28;918;-50
2024/03/15 04:39:30;;;;;;;;;;;;;;;16.02;48.54;101051.53;5082046;28;1002;-47
2024/03/15 04:41:56;;;;;;;;;;;;;;;15.91;47.69;101049.81;5084505;28;1043;-50
2024/03/15 04:44:22;;;;;;;;;;;;;;;15.85;48.25;101056.31;5084337;28;1054;-48
2024/03/15 04:46:48;;;;;;;;;;;;;;;17.28;47.74;101060.97;5074222;28;1915;-48
2024/03/15 04:49:14;;;;;;;;;;;;;;;16.21;48.91;101064.81;5086658;28;938;-48
2024/03/15 04:51:39;;;;;;;;;;;;;;;15.87;48.40;101063.19;5076643;28;1459;-48
2024/03/15 04:54:06;;;;;;;;;;;;;;;16.38;48.61;101062.75;5082340;28;1412;-47
2024/03/15 04:56:33;;;;;;;;;;;;;;;16.56;48.59;101068.88;5068875;28;1338;-46
2024/03/15 04:58:58;;;;;;;;;;;;;;;15.95;48.89;101069.28;5084676;28;2601;-48
2024/03/15 05:01:24;;;;;;;;;;;;;;;15.80;47.62;101064.53;5090334;28;886;-48
2024/03/15 05:03:50;;;;;;;;;;;;;;;16.14;48.60;101072.47;5083266;28;1043;-48
2024/03/15 05:06:15;;;;;;;;;;;;;;;17.40;47.39;101067.03;5073705;28;1978;-47
2024/03/15 05:08:41;;;;;;;;;;;;;;;16.22;49.07;101064.56;5048234;28;1562;-49
2024/03/15 05:11:07;;;;;;;;;;;;;;;16.88;47.89;101065.19;5078363;28;974;-48
2024/03/15 05:13:33;;;;;;;;;;;;;;;16.67;48.30;101069.75;5084384;28;913;-47
2024/03/15 05:15:58;;;;;;;;;;;;;;;16.17;49.22;101067.28;5085208;28;1119;-47
2024/03/15 05:18:25;;;;;;;;;;;;;;;15.89;50.18;101074.75;5085333;28;898;-52
2024/03/15 05:20:50;;;;;;;;;;;;;;;15.63;50.44;101065.44;5078225;28;862;-48
2024/03/15 05:23:17;;;;;;;;;;;;;;;15.61;50.75;101072.25;5080086;28;994;-49
2024/03/15 05:25:43;;;;;;;;;;;;;;;15.43;50.87;101079.78;5093152;28;1973;-48
2024/03/15 05:28:08;;;;;;;;;;;;;;;15.32;51.31;101081.56;5073524;28;1024;-49
2024/03/15 05:30:34;;;;;;;;;;;;;;;15.81;50.39;101082.59;5059183;28;1008;-47
2024/03/15 05:33:00;;;;;;;;;;;;;;;17.22;46.70;101084.84;5083337;28;1095;-48
2024/03/15 05:35:25;;;;;;;;;;;;;;;16.63;47.91;101082.38;5085600;28;1138;-47
2024/03/15 05:37:51;;;;;;;;;;;;;;;15.99;49.40;101087.72;5083650;28;938;-49
2024/03/15 05:40:18;;;;;;;;;;;;;;;15.65;50.46;101076.94;5086227;28;1118;-48
2024/03/15 05:42:43;;;;;;;;;;;;;;;15.45;50.71;101079.50;5090415;28;1085;-45
2024/03/15 05:45:09;;;;;;;;;;;;;;;15.40;51.05;101083.00;5077819;28;1138;-49
2024/03/15 05:47:35;;;;;;;;;;;;;;;17.00;47.14;101082.31;5087286;28;1992;-47
2024/03/15 05:50:04;;;;;;;;;;;;;;;16.91;47.04;101083.91;5091379;28;944;-50
2024/03/15 05:52:32;;;;;;;;;;;;;;;16.06;49.21;101085.56;5087611;28;1163;-48
2024/03/15 05:54:57;;;;;;;;;;;;;;;15.68;50.38;101073.72;5089603;28;1046;-58
2024/03/15 05:57:26;;;;;;;;;;;;;;;15.46;50.70;101079.25;5075328;28;1163;-58
2024/03/15 05:59:52;;;;;;;;;;;;;;;16.23;48.92;101077.19;5091313;28;1210;-59
2024/03/15 06:02:18;;;;;;;;;;;;;;;17.52;45.92;101079.69;5087248;28;1194;-57
2024/03/15 06:04:43;;;;;;;;;;;;;;;16.65;47.72;101088.41;5087792;28;1210;-60
2024/03/15 06:07:09;;;;;;;;;;;;;;;16.07;49.28;101084.50;5075705;28;1905;-58
2024/03/15 06:09:36;;;;;;;;;;;;;;;15.71;50.08;101078.66;5090950;28;1150;-58
2024/03/15 06:12:02;;;;;;;;;;;;;;;15.45;50.89;101087.72;5072959;28;1210;-58
2024/03/15 06:14:29;;;;;;;;;;;;;;;15.82;50.29;101081.53;5067480;28;1470;-58
2024/03/15 06:16:54;;;;;;;;;;;;;;;17.28;46.39;101091.19;5073098;28;1388;-60
2024/03/15 06:19:22;;;;;;;;;;;;;;;16.84;47.24;101088.78;5066216;28;1099;-56
2024/03/15 06:21:49;;;;;;;;;;;;;;;16.13;49.10;101092.75;5085789;28;1138;-60
2024/03/15 06:24:21;;;;;;;;;;;;;;;15.85;49.94;101091.97;5092517;28;1106;-59
2024/03/15 06:26:49;;;;;;;;;;;;;;;15.59;50.45;101090.91;5092272;28;1970;-51
2024/03/15 06:29:20;;;;;;;;;;;;;;;15.92;49.97;101089.81;5098403;28;1077;-57
2024/03/15 06:31:48;;;;;;;;;;;;;;;17.39;46.25;101090.13;5067081;28;1359;-57
2024/03/15 06:34:13;;;;;;;;;;;;;;;16.97;46.86;101087.50;5068897;28;983;-58
2024/03/15 06:36:44;;;;;;;;;;;;;;;16.29;48.58;101091.78;5071393;28;1265;-57
2024/03/15 06:39:25;;;;;;;;;;;;;;;15.87;49.79;101085.13;5069668;28;1319;-57
2024/03/15 06:41:55;;;;;;;;;;;;;;;15.60;50.68;101082.41;5078891;28;1064;-58
2024/03/15 06:44:23;;;;;;;;;;;;;;;16.25;49.07;101082.41;5066082;28;1233;-58
2024/03/15 06:50:30;;;;;;;;;;;;;;;16.73;47.73;101075.03;5076521;28;1035;-57
2024/03/15 06:52:36;;;;;;;;;;;;;;;16.14;49.22;101070.53;5058589;28;1609;-57
2024/03/15 06:55:02;;;;;;;;;;;;;;;15.78;50.04;101067.50;5089662;28;1135;-55
2024/03/15 06:57:28;;;;;;;;;;;;;;;15.56;50.67;101064.81;5073657;28;1215;-60
2024/03/15 06:59:54;;;;;;;;;;;;;;;16.18;49.34;101059.88;5070021;28;1574;-55
2024/03/15 07:02:19;;;;;;;;;;;;;;;17.53;46.12;101056.59;5080538;28;1083;-57
2024/03/15 07:04:45;;;;;;;;;;;;;;;16.85;47.45;101066.53;5074963;28;1328;-57
2024/03/15 07:07:13;;;;;;;;;;;;;;;16.25;49.07;101065.94;5049955;28;1917;-58
2024/03/15 07:09:39;;;;;;;;;;;;;;;15.92;49.91;101059.66;5063733;28;1083;-57
2024/03/15 07:12:06;;;;;;;;;;;;;;;15.70;50.39;101066.03;5074334;28;1266;-57
2024/03/15 07:14:32;;;;;;;;;;;;;;;15.49;51.10;101070.50;5072170;28;881;-58
2024/03/15 07:16:58;;;;;;;;;;;;;;;16.33;49.07;101073.69;5080840;28;1198;-57
2024/03/15 07:19:23;;;;;;;;;;;;;;;17.55;45.89;101070.91;5098421;28;1055;-58
2024/03/15 07:21:49;;;;;;;;;;;;;;;16.90;47.34;101065.75;5087587;28;1081;-56
2024/03/15 07:24:14;;;;;;;;;;;;;;;16.24;49.05;101067.03;5088592;28;1217;-57
2024/03/15 07:26:40;;;;;;;;;;;;;;;15.94;49.80;101068.47;5074070;28;1906;-59
2024/03/15 07:29:06;;;;;;;;;;;;;;;15.74;50.34;101061.69;5097691;28;1106;-57
2024/03/15 07:31:32;;;;;;;;;;;;;;;15.72;50.37;101058.41;5075306;28;1042;-55
2024/03/15 07:33:57;;;;;;;;;;;;;;;17.24;46.89;101066.16;5073544;28;1098;-56
2024/03/15 07:36:24;;;;;;;;;;;;;;;17.24;46.30;101057.91;5061490;28;1206;-62
2024/03/15 07:38:51;;;;;;;;;;;;;;;16.44;48.47;101066.34;5065642;28;1364;-54
2024/03/15 07:41:17;;;;;;;;;;;;;;;16.01;49.75;101060.84;5080105;28;1078;-56
2024/03/15 07:43:43;;;;;;;;;;;;;;;15.80;50.33;101057.09;5084569;28;1067;-60
2024/03/15 07:46:09;;;;;;;;;;;;;;;15.52;51.09;101053.53;5067770;28;1906;-60
2024/03/15 07:48:35;;;;;;;;;;;;;;;17.03;47.29;101058.97;5069875;28;1142;-58
2024/03/15 07:51:01;;;;;;;;;;;;;;;17.52;45.84;101054.94;5076218;28;1372;-57
2024/03/15 07:53:26;;;;;;;;;;;;;;;16.47;48.67;101054.84;5064414;28;1138;-57
2024/03/15 07:55:53;;;;;;;;;;;;;;;16.01;49.68;101055.34;5085029;28;1090;-57
2024/03/15 07:58:18;;;;;;;;;;;;;;;15.77;50.58;101054.03;5086565;28;1259;-57
2024/03/15 08:00:44;;;;;;;;;;;;;;;15.58;50.99;101048.94;5077145;28;1115;-57
2024/03/15 08:03:13;;;;;;;;;;;;;;;15.68;50.74;101057.25;5062995;28;1266;-53
2024/03/15 08:05:39;;;;;;;;;;;;;;;17.24;46.83;101062.59;5075839;28;1973;-58
2024/03/15 08:08:05;;;;;;;;;;;;;;;17.19;46.71;101052.38;5073011;28;1147;-55
2024/03/15 08:10:31;;;;;;;;;;;;;;;16.39;48.78;101053.41;5074845;28;1130;-58
2024/03/15 08:12:57;;;;;;;;;;;;;;;15.96;49.79;101047.06;5089681;28;1290;-57
2024/03/15 08:15:23;;;;;;;;;;;;;;;15.71;50.75;101045.78;5057171;28;1162;-58
2024/03/15 08:17:50;;;;;;;;;;;;;;;15.50;51.06;101052.13;5066902;28;1207;-58
2024/03/15 08:20:16;;;;;;;;;;;;;;;16.87;48.10;101056.13;5067521;28;1316;-57
2024/03/15 08:22:41;;;;;;;;;;;;;;;17.82;45.37;101050.56;5091599;28;1120;-58
2024/03/15 08:25:07;;;;;;;;;;;;;;;16.67;48.03;101042.31;5095156;28;1062;-58
2024/03/15 08:27:33;;;;;;;;;;;;;;;16.16;49.53;101051.91;5075872;28;1902;-58
2024/03/15 08:30:00;;;;;;;;;;;;;;;15.87;50.22;101049.47;5084532;28;1070;-58
2024/03/15 08:32:29;;;;;;;;;;;;;;;15.71;50.85;101044.94;5069094;28;1216;-57
2024/03/15 08:34:55;;;;;;;;;;;;;;;15.51;51.31;101049.13;5068311;28;1473;-56
2024/03/15 08:37:21;;;;;;;;;;;;;;;15.95;50.44;101045.44;5081020;28;1169;-57
2024/03/15 08:39:46;;;;;;;;;;;;;;;17.37;46.67;101048.31;5068159;28;1055;-56
2024/03/15 08:42:12;;;;;;;;;;;;;;;17.09;47.02;101058.69;5061452;28;1281;-56
2024/03/15 08:44:38;;;;;;;;;;;;;;;16.31;48.99;101037.44;5083022;28;1151;-58
2024/03/15 08:47:05;;;;;;;;;;;;;;;15.92;50.20;101040.47;5068689;28;1901;-57
2024/03/15 08:49:31;;;;;;;;;;;;;;;15.72;50.63;101036.47;5089568;28;1168;-57
2024/03/15 08:51:57;;;;;;;;;;;;;;;15.54;51.17;101031.34;5064470;28;1289;-57
2024/03/15 08:54:23;;;;;;;;;;;;;;;16.38;49.13;101043.53;5063708;28;1337;-57
2024/03/15 08:56:49;;;;;;;;;;;;;;;17.60;46.01;101040.66;5095093;28;1210;-59
2024/03/15 08:59:17;;;;;;;;;;;;;;;16.81;47.76;101040.72;5082832;28;1166;-57
2024/03/15 09:01:43;;;;;;;;;;;;;;;16.17;49.52;101047.22;5093127;28;1147;-60
2024/03/15 09:04:09;;;;;;;;;;;;;;;15.82;50.33;101034.91;5082273;28;1222;-57
2024/03/15 09:06:34;;;;;;;;;;;;;;;15.62;51.02;101039.09;5089173;28;1974;-58
2024/03/15 09:09:09;;;;;;;;;;;;;;;15.44;51.40;101034.00;5089350;28;1182;-56
2024/03/15 09:11:35;;;;;;;;;;;;;;;16.63;48.44;101042.00;5073295;28;1043;-57
2024/03/15 09:14:01;;;;;;;;;;;;;;;17.69;45.82;101039.00;5080625;28;1055;-59
2024/03/15 09:16:27;;;;;;;;;;;;;;;16.67;48.03;101034.06;5070691;28;1079;-57
2024/03/15 09:18:53;;;;;;;;;;;;;;;16.10;49.60;101033.75;5090837;28;1055;-63
2024/03/15 09:21:21;;;;;;;;;;;;;;;15.85;50.37;101037.97;5086684;28;1185;-58
2024/03/15 09:23:47;;;;;;;;;;;;;;;15.65;50.74;101030.34;5071125;28;1302;-59
2024/03/15 09:26:13;;;;;;;;;;;;;;;15.48;51.39;101026.91;5079440;28;1933;-54
2024/03/15 09:28:43;;;;;;;;;;;;;;;16.93;47.86;101030.34;5087800;28;1080;-58
2024/03/15 09:31:14;;;;;;;;;;;;;;;17.46;46.42;101023.88;5084224;28;1109;-58
2024/03/15 09:33:43;;;;;;;;;;;;;;;16.33;48.87;101020.72;5063047;28;1115;-57
2024/03/15 09:36:16;;;;;;;;;;;;;;;15.98;49.93;101022.97;5080269;28;1163;-57
2024/03/15 09:38:45;;;;;;;;;;;;;;;15.73;50.71;101016.16;5080230;28;826;-60
2024/03/15 09:41:11;;;;;;;;;;;;;;;15.51;51.06;101023.66;5079743;28;1075;-60
2024/03/15 09:43:39;;;;;;;;;;;;;;;16.46;49.01;101014.75;5080186;28;1110;-60
2024/03/15 09:46:06;;;;;;;;;;;;;;;17.62;46.06;101016.44;5079818;28;2006;-61
2024/03/15 09:48:32;;;;;;;;;;;;;;;16.56;48.32;101016.72;5079535;28;1063;-60
2024/03/15 09:51:00;;;;;;;;;;;;;;;16.05;49.59;101020.00;5061626;28;1214;-60
2024/03/15 09:53:26;;;;;;;;;;;;;;;15.74;50.52;101019.75;5062121;28;1210;-60
2024/03/15 09:55:52;;;;;;;;;;;;;;;15.55;50.91;101020.13;5079757;28;1011;-60
2024/03/15 09:58:21;;;;;;;;;;;;;;;16.45;49.02;101029.56;5061953;28;1079;-60
2024/03/15 10:00:47;;;;;;;;;;;;;;;17.69;45.94;101019.75;5078932;28;1055;-60
2024/03/15 10:03:13;;;;;;;;;;;;;;;16.86;47.82;101016.03;5071755;28;941;-60
2024/03/15 10:05:38;;;;;;;;;;;;;;;16.22;49.49;101017.09;5072761;28;1977;-60
2024/03/15 10:08:05;;;;;;;;;;;;;;;15.88;50.12;101017.44;5067737;28;972;-60
2024/03/15 10:10:32;;;;;;;;;;;;;;;15.70;50.80;101019.44;5078824;28;1075;-60
2024/03/15 10:12:57;;;;;;;;;;;;;;;15.64;50.74;101023.22;5079235;28;1008;-60
2024/03/15 10:15:23;;;;;;;;;;;;;;;17.16;47.36;101022.72;5069343;28;1523;-56
2024/03/15 10:17:52;;;;;;;;;;;;;;;17.30;46.59;101025.75;5073893;28;1281;-61
2024/03/15 10:20:18;;;;;;;;;;;;;;;16.30;49.07;101016.59;5073978;28;1111;-59
2024/03/15 10:22:48;;;;;;;;;;;;;;;15.98;49.79;101020.22;5068404;28;1269;-59
2024/03/15 10:25:15;;;;;;;;;;;;;;;15.74;50.47;101022.50;5069507;28;1270;-62
2024/03/15 10:27:44;;;;;;;;;;;;;;;15.49;51.25;101021.19;5087546;28;2011;-62
2024/03/15 10:30:16;;;;;;;;;;;;;;;16.92;47.94;101030.63;5091244;28;973;-60
2024/03/15 10:32:46;;;;;;;;;;;;;;;17.37;46.52;101026.31;5092088;28;1010;-63
2024/03/15 10:35:15;;;;;;;;;;;;;;;16.38;48.66;101027.06;5086648;28;1143;-62
2024/03/15 10:37:44;;;;;;;;;;;;;;;16.00;49.88;101025.44;5098882;28;1046;-59
2024/03/15 10:40:12;;;;;;;;;;;;;;;15.74;50.51;101028.78;5094211;28;897;-63
2024/03/15 10:42:49;;;;;;;;;;;;;;;15.57;50.96;101028.09;5090678;28;1197;-63
2024/03/15 10:45:16;;;;;;;;;;;;;;;16.51;48.52;101030.41;5086694;28;1200;-63
2024/03/15 10:47:41;;;;;;;;;;;;;;;17.65;46.09;101026.09;5056427;28;1918;-62
2024/03/15 10:50:17;;;;;;;;;;;;;;;16.91;47.41;101023.47;5083771;28;1067;-61
2024/03/15 10:52:43;;;;;;;;;;;;;;;16.17;49.52;101026.13;5091456;28;1046;-63
2024/03/15 10:55:15;;;;;;;;;;;;;;;15.96;49.89;101032.53;5085265;28;1067;-61
2024/03/15 10:57:41;;;;;;;;;;;;;;;15.70;50.81;101022.19;5087453;28;1054;-63
2024/03/15 11:00:14;;;;;;;;;;;;;;;15.51;51.23;101024.47;5086332;28;1028;-64
2024/03/15 11:02:46;;;;;;;;;;;;;;;16.99;47.75;101030.38;5085949;28;1123;-64
2024/03/15 11:05:18;;;;;;;;;;;;;;;17.22;46.79;101026.28;5088790;28;1159;-64
2024/03/15 11:07:44;;;;;;;;;;;;;;;16.24;49.56;101028.63;5095732;28;1985;-63
2024/03/15 11:10:13;;;;;;;;;;;;;;;15.95;50.21;101028.16;5086874;28;1133;-65
2024/03/15 11:12:38;;;;;;;;;;;;;;;15.76;50.56;101030.44;5061528;28;1155;-65
2024/03/15 11:15:05;;;;;;;;;;;;;;;15.56;50.84;101027.25;5064536;28;1397;-61
2024/03/15 11:17:30;;;;;;;;;;;;;;;16.36;49.22;101026.50;5079091;28;1186;-62
2024/03/15 11:19:58;;;;;;;;;;;;;;;17.58;46.06;101020.84;5090991;28;1079;-66
2024/03/15 11:22:24;;;;;;;;;;;;;;;16.60;48.64;101023.31;5073256;28;1275;-66
2024/03/15 11:24:50;;;;;;;;;;;;;;;16.15;49.56;101022.00;5050042;28;1517;-67
2024/03/15 11:27:16;;;;;;;;;;;;;;;15.80;50.63;101021.47;5078428;28;1913;-67
2024/03/15 11:29:45;;;;;;;;;;;;;;;15.66;50.84;101023.78;5091104;28;1147;-61
2024/03/15 11:32:11;;;;;;;;;;;;;;;16.39;49.56;101034.19;5075154;28;1464;-62
2024/03/15 11:34:38;;;;;;;;;;;;;;;17.64;46.05;101024.44;5090606;28;893;-65
2024/03/15 11:37:04;;;;;;;;;;;;;;;16.69;48.24;101027.22;5079740;28;1241;-64
2024/03/15 11:39:30;;;;;;;;;;;;;;;16.10;50.12;101024.69;5075836;28;1605;-66
2024/03/15 11:42:00;;;;;;;;;;;;;;;15.80;50.39;101023.38;5063358;28;1340;-69
2024/03/15 11:44:27;;;;;;;;;;;;;;;15.61;50.97;101017.44;5077361;28;1118;-67
2024/03/15 11:46:53;;;;;;;;;;;;;;;16.62;48.73;101026.63;5063538;28;1909;-63
2024/03/15 11:49:19;;;;;;;;;;;;;;;17.73;45.98;101029.09;5059796;28;1194;-64
2024/03/15 11:51:54;;;;;;;;;;;;;;;16.67;48.39;101025.84;5061572;28;1088;-66
2024/03/15 11:54:19;;;;;;;;;;;;;;;16.16;49.75;101023.63;5066126;28;1564;-63
2024/03/15 11:56:45;;;;;;;;;;;;;;;15.88;50.53;101022.91;5068604;28;1309;-65
2024/03/15 11:59:13;;;;;;;;;;;;;;;15.67;51.04;101028.19;5063751;28;1036;-66
2024/03/15 12:01:39;;;;;;;;;;;;;;;16.48;49.25;101026.31;5074110;28;1356;-63
2024/03/15 12:04:05;;;;;;;;;;;;;;;17.72;45.97;101030.19;5079588;28;1211;-64
2024/03/15 12:06:31;;;;;;;;;;;;;;;16.75;48.13;101039.03;5049894;28;1905;-63
2024/03/15 12:09:05;;;;;;;;;;;;;;;16.17;49.80;101030.78;5058128;28;1039;-60
2024/03/15 12:11:35;;;;;;;;;;;;;;;15.90;50.47;101028.94;5069038;28;1155;-66
2024/03/15 12:14:00;;;;;;;;;;;;;;;15.69;51.00;101027.94;5078010;28;1023;-63
2024/03/15 12:16:27;;;;;;;;;;;;;;;16.35;49.74;101032.25;5088307;28;843;-63
2024/03/15 12:18:53;;;;;;;;;;;;;;;17.65;46.23;101026.91;5072904;28;1563;-61
2024/03/15 12:21:19;;;;;;;;;;;;;;;16.76;48.17;101037.97;5089776;28;1062;-62
2024/03/15 12:23:44;;;;;;;;;;;;;;;16.22;49.53;101036.31;5072575;28;1302;-64
2024/03/15 12:26:10;;;;;;;;;;;;;;;15.91;50.60;101036.09;5067784;28;1984;-64
2024/03/15 12:28:35;;;;;;;;;;;;;;;15.67;51.05;101038.31;5087778;28;1051;-60
2024/03/15 12:31:01;;;;;;;;;;;;;;;15.55;51.44;101035.75;5080246;28;1325;-66
2024/03/15 12:33:26;;;;;;;;;;;;;;;16.72;48.51;101040.41;5096619;28;1058;-59
2024/03/15 12:35:53;;;;;;;;;;;;;;;17.80;46.02;101042.59;5096364;28;1078;-60
2024/03/15 12:38:21;;;;;;;;;;;;;;;16.62;48.65;101037.63;5096291;28;912;-59
2024/03/15 12:40:47;;;;;;;;;;;;;;;16.11;50.13;101038.13;5086468;28;1078;-62
2024/03/15 12:43:13;;;;;;;;;;;;;;;15.95;50.52;101034.47;5083480;28;1379;-62
2024/03/15 12:45:40;;;;;;;;;;;;;;;15.66;51.15;101039.41;5079174;28;1225;-62
2024/03/15 12:48:11;;;;;;;;;;;;;;;16.47;49.42;101045.78;5066990;28;1913;-61